Vekara — OITM — position and weather

sailwx.info

Track history (hours):
 
Tides and Currents Weather Stations Pressure Air Temp Water Temp Dewpoint Dewpoint Depression Visibility Wind Speed Wind Dir Waves Ship Positions

Vekara

Last reported at 2017-Nov-18 02:30 UTC. Time now 2017-Nov-18 02:57 UTC.
Position N 59°48' E 023°05'.

Length 82 m; draft 4.2 m.

Type: Cargo ship. MMSI: 230325000.

Date/timePositionNaut miles runAvg speedWind from/ knotsBaromVisibWave heightAir tempDewpointWater temp
2017-Nov-18 02:30N 59°48' E 023°05'2 0.0
2017-Nov-16 05:24N 59°48' E 023°02'3 7.6
2017-Nov-16 04:57N 59°48' E 023°09'3 7.5
2017-Nov-16 04:30N 59°49' E 023°15'4 7.7
2017-Nov-16 04:00N 59°50' E 023°23'3 7.0
2017-Nov-16 03:30N 59°51' E 023°29'4 7.8
2017-Nov-16 03:00N 59°52' E 023°37'4 7.9
2017-Nov-16 02:30N 59°54' E 023°43'4 8.1
2017-Nov-16 02:00N 59°57' E 023°50'3 5.8
2017-Nov-16 01:29N 59°59' E 023°54'16 7.0
2017-Nov-15 23:08N 59°57' E 024°26'2 8.0
2017-Nov-15 22:55N 59°58' E 024°29'3 7.5
2017-Nov-15 22:30N 59°60' E 024°34'4 8.0
2017-Nov-15 22:00N 60°03' E 024°39'4 7.7
2017-Nov-15 21:30N 60°05' E 024°46'4 7.6
2017-Nov-15 21:00N 60°06' E 024°53'4 7.5
2017-Nov-15 20:31N 60°07' E 025°00'4 7.3
2017-Nov-15 20:00N 60°08' E 025°07'4 7.4
2017-Nov-15 19:29N 60°10' E 025°14'29 7.0
2017-Nov-15 15:16N 60°16' E 026°12'2 8.0
2017-Nov-15 15:00N 60°17' E 026°16'4 7.9
2017-Nov-15 14:30N 60°18' E 026°23'4 7.8
2017-Nov-15 14:00N 60°19' E 026°31'4 7.6
2017-Nov-15 13:30N 60°21' E 026°38'4 8.0
2017-Nov-15 13:00N 60°23' E 026°45'4 7.9
2017-Nov-15 12:30N 60°22' E 026°53'4 7.7
2017-Nov-15 12:00N 60°21' E 027°00'4 7.6
2017-Nov-15 11:30N 60°22' E 027°08'4 7.9
2017-Nov-15 11:00N 60°23' E 027°16'4 7.2
2017-Nov-15 10:30N 60°25' E 027°21'4 7.5
2017-Nov-15 10:00N 60°27' E 027°28'4 7.3
2017-Nov-15 09:30N 60°27' E 027°36'3 6.7
2017-Nov-15 09:00N 60°27' E 027°42'3 7.0
2017-Nov-15 08:30N 60°26' E 027°49'4 7.3
2017-Nov-15 08:01N 60°27' E 027°57'4 7.3
2017-Nov-15 07:30N 60°27' E 028°04'  
2017-Nov-11 07:19N 60°28' E 028°07'2 7.4
2017-Nov-11 07:00N 60°27' E 028°03'4 8.0
2017-Nov-11 06:30N 60°27' E 027°55'4 7.8
2017-Nov-11 06:00N 60°26' E 027°47'4 7.5
2017-Nov-11 05:30N 60°27' E 027°40'4 7.9
2017-Nov-11 05:01N 60°26' E 027°32'4 8.2
2017-Nov-11 04:30N 60°26' E 027°24'4 7.8
2017-Nov-11 04:00N 60°23' E 027°18'4 8.4
2017-Nov-11 03:31N 60°22' E 027°10'4 8.4
2017-Nov-11 03:00N 60°21' E 027°02'4 8.2
2017-Nov-11 02:30N 60°22' E 026°54'4 8.3
2017-Nov-11 02:01N 60°23' E 026°45'4 8.4
2017-Nov-11 01:30N 60°21' E 026°37'4 8.5
2017-Nov-11 01:00N 60°19' E 026°30'4 8.5
2017-Nov-11 00:30N 60°18' E 026°21'4 8.6
2017-Nov-11 00:01N 60°16' E 026°13'25 7.2
2017-Nov-10 20:29N 60°12' E 025°23'4 8.7
2017-Nov-10 20:00N 60°10' E 025°15'4 8.7
2017-Nov-10 19:30N 60°08' E 025°08'4 8.7
2017-Nov-10 19:00N 60°07' E 024°59'4 8.3
2017-Nov-10 18:30N 60°05' E 024°52'4 7.7
2017-Nov-10 18:00N 60°05' E 024°44'4 8.6
2017-Nov-10 17:30N 60°02' E 024°37'5 8.4
2017-Nov-10 16:57N 59°59' E 024°31'18 7.9
2017-Nov-10 14:43N 59°59' E 023°56'1 6.3
2017-Nov-10 14:30N 59°59' E 023°53'3 6.4
2017-Nov-10 14:00N 59°57' E 023°49'4 8.5
2017-Nov-10 13:30N 59°54' E 023°42'4 8.4
2017-Nov-10 13:00N 59°52' E 023°35'4 8.6
2017-Nov-10 12:30N 59°51' E 023°27'4 8.0
2017-Nov-10 12:00N 59°49' E 023°20'4 8.6
2017-Nov-10 11:30N 59°48' E 023°12'4 8.5
2017-Nov-10 11:00N 59°48' E 023°03'0 0.0
2017-Nov-08 19:39N 59°48' E 023°03'1 7.6
2017-Nov-08 19:30N 59°48' E 023°05'4 7.4
2017-Nov-08 19:00N 59°48' E 023°12'4 7.6
2017-Nov-08 18:31N 59°49' E 023°19'4 7.2
2017-Nov-08 18:01N 59°51' E 023°26'4 7.4
2017-Nov-08 17:30N 59°52' E 023°33'4 7.2
2017-Nov-08 17:00N 59°53' E 023°40'4 7.9
2017-Nov-08 16:30N 59°55' E 023°46'4 7.2
2017-Nov-08 16:01N 59°58' E 023°51'2 3.8
2017-Nov-08 15:28N 59°59' E 023°55'3 7.1
2017-Nov-08 14:59N 59°59' E 024°01'13 7.1
2017-Nov-08 13:13N 59°57' E 024°26'2 7.5
2017-Nov-08 12:59N 59°58' E 024°29'4 7.1
2017-Nov-08 12:26N 60°01' E 024°35'3 7.6
2017-Nov-08 12:00N 60°03' E 024°40'4 7.3
2017-Nov-08 11:31N 60°05' E 024°46'4 7.4
2017-Nov-08 11:01N 60°06' E 024°53'4 7.3
2017-Nov-08 10:30N 60°07' E 024°60'4 7.4
2017-Nov-08 10:00N 60°08' E 025°07'4 7.6
2017-Nov-08 09:28N 60°10' E 025°14'29 7.1
2017-Nov-08 05:21N 60°16' E 026°12'3 7.9
2017-Nov-08 05:00N 60°17' E 026°17'4 8.1
2017-Nov-08 04:30N 60°19' E 026°25'4 8.0
2017-Nov-08 04:00N 60°20' E 026°32'4 8.0
2017-Nov-08 03:30N 60°21' E 026°40'4 7.8
2017-Nov-08 03:00N 60°22' E 026°47'4 7.9
2017-Nov-08 02:30N 60°22' E 026°55'  
Track history (hours):
 
Tides and Currents Weather Stations Pressure Air Temp Water Temp Dewpoint Dewpoint Depression Visibility Wind Speed Wind Dir Waves Ship Positions

Vekara

Last reported at 2017-Nov-18 02:30 UTC. Time now 2017-Nov-18 02:57 UTC.
Position N 59°48' E 023°05'.

Length 82 m; draft 4.2 m.

Type: Cargo ship. MMSI: 230325000.

Date/timePositionNaut miles runAvg speedWind from/ knotsBaromVisibWave heightAir tempDewpointWater temp
2017-Nov-18 02:30N 59°48' E 023°05'2 0.0
2017-Nov-16 05:24N 59°48' E 023°02'3 7.6
2017-Nov-16 04:57N 59°48' E 023°09'3 7.5
2017-Nov-16 04:30N 59°49' E 023°15'4 7.7
2017-Nov-16 04:00N 59°50' E 023°23'3 7.0
2017-Nov-16 03:30N 59°51' E 023°29'4 7.8
2017-Nov-16 03:00N 59°52' E 023°37'4 7.9
2017-Nov-16 02:30N 59°54' E 023°43'4 8.1
2017-Nov-16 02:00N 59°57' E 023°50'3 5.8
2017-Nov-16 01:29N 59°59' E 023°54'16 7.0
2017-Nov-15 23:08N 59°57' E 024°26'2 8.0
2017-Nov-15 22:55N 59°58' E 024°29'3 7.5
2017-Nov-15 22:30N 59°60' E 024°34'4 8.0
2017-Nov-15 22:00N 60°03' E 024°39'4 7.7
2017-Nov-15 21:30N 60°05' E 024°46'4 7.6
2017-Nov-15 21:00N 60°06' E 024°53'4 7.5
2017-Nov-15 20:31N 60°07' E 025°00'4 7.3
2017-Nov-15 20:00N 60°08' E 025°07'4 7.4
2017-Nov-15 19:29N 60°10' E 025°14'29 7.0
2017-Nov-15 15:16N 60°16' E 026°12'2 8.0
2017-Nov-15 15:00N 60°17' E 026°16'4 7.9
2017-Nov-15 14:30N 60°18' E 026°23'4 7.8
2017-Nov-15 14:00N 60°19' E 026°31'4 7.6
2017-Nov-15 13:30N 60°21' E 026°38'4 8.0
2017-Nov-15 13:00N 60°23' E 026°45'4 7.9
2017-Nov-15 12:30N 60°22' E 026°53'4 7.7
2017-Nov-15 12:00N 60°21' E 027°00'4 7.6
2017-Nov-15 11:30N 60°22' E 027°08'4 7.9
2017-Nov-15 11:00N 60°23' E 027°16'4 7.2
2017-Nov-15 10:30N 60°25' E 027°21'4 7.5
2017-Nov-15 10:00N 60°27' E 027°28'4 7.3
2017-Nov-15 09:30N 60°27' E 027°36'3 6.7
2017-Nov-15 09:00N 60°27' E 027°42'3 7.0
2017-Nov-15 08:30N 60°26' E 027°49'4 7.3
2017-Nov-15 08:01N 60°27' E 027°57'4 7.3
2017-Nov-15 07:30N 60°27' E 028°04'  
2017-Nov-11 07:19N 60°28' E 028°07'2 7.4
2017-Nov-11 07:00N 60°27' E 028°03'4 8.0
2017-Nov-11 06:30N 60°27' E 027°55'4 7.8
2017-Nov-11 06:00N 60°26' E 027°47'4 7.5
2017-Nov-11 05:30N 60°27' E 027°40'4 7.9
2017-Nov-11 05:01N 60°26' E 027°32'4 8.2
2017-Nov-11 04:30N 60°26' E 027°24'4 7.8
2017-Nov-11 04:00N 60°23' E 027°18'4 8.4
2017-Nov-11 03:31N 60°22' E 027°10'4 8.4
2017-Nov-11 03:00N 60°21' E 027°02'4 8.2
2017-Nov-11 02:30N 60°22' E 026°54'4 8.3
2017-Nov-11 02:01N 60°23' E 026°45'4 8.4
2017-Nov-11 01:30N 60°21' E 026°37'4 8.5
2017-Nov-11 01:00N 60°19' E 026°30'4 8.5
2017-Nov-11 00:30N 60°18' E 026°21'4 8.6
2017-Nov-11 00:01N 60°16' E 026°13'25 7.2
2017-Nov-10 20:29N 60°12' E 025°23'4 8.7
2017-Nov-10 20:00N 60°10' E 025°15'4 8.7
2017-Nov-10 19:30N 60°08' E 025°08'4 8.7
2017-Nov-10 19:00N 60°07' E 024°59'4 8.3
2017-Nov-10 18:30N 60°05' E 024°52'4 7.7
2017-Nov-10 18:00N 60°05' E 024°44'4 8.6
2017-Nov-10 17:30N 60°02' E 024°37'5 8.4
2017-Nov-10 16:57N 59°59' E 024°31'18 7.9
2017-Nov-10 14:43N 59°59' E 023°56'1 6.3
2017-Nov-10 14:30N 59°59' E 023°53'3 6.4
2017-Nov-10 14:00N 59°57' E 023°49'4 8.5
2017-Nov-10 13:30N 59°54' E 023°42'4 8.4
2017-Nov-10 13:00N 59°52' E 023°35'4 8.6
2017-Nov-10 12:30N 59°51' E 023°27'4 8.0
2017-Nov-10 12:00N 59°49' E 023°20'4 8.6
2017-Nov-10 11:30N 59°48' E 023°12'4 8.5
2017-Nov-10 11:00N 59°48' E 023°03'0 0.0
2017-Nov-08 19:39N 59°48' E 023°03'1 7.6
2017-Nov-08 19:30N 59°48' E 023°05'4 7.4
2017-Nov-08 19:00N 59°48' E 023°12'4 7.6
2017-Nov-08 18:31N 59°49' E 023°19'4 7.2
2017-Nov-08 18:01N 59°51' E 023°26'4 7.4
2017-Nov-08 17:30N 59°52' E 023°33'4 7.2
2017-Nov-08 17:00N 59°53' E 023°40'4 7.9
2017-Nov-08 16:30N 59°55' E 023°46'4 7.2
2017-Nov-08 16:01N 59°58' E 023°51'2 3.8
2017-Nov-08 15:28N 59°59' E 023°55'3 7.1
2017-Nov-08 14:59N 59°59' E 024°01'13 7.1
2017-Nov-08 13:13N 59°57' E 024°26'2 7.5
2017-Nov-08 12:59N 59°58' E 024°29'4 7.1
2017-Nov-08 12:26N 60°01' E 024°35'3 7.6
2017-Nov-08 12:00N 60°03' E 024°40'4 7.3
2017-Nov-08 11:31N 60°05' E 024°46'4 7.4
2017-Nov-08 11:01N 60°06' E 024°53'4 7.3
2017-Nov-08 10:30N 60°07' E 024°60'4 7.4
2017-Nov-08 10:00N 60°08' E 025°07'4 7.6
2017-Nov-08 09:28N 60°10' E 025°14'29 7.1
2017-Nov-08 05:21N 60°16' E 026°12'3 7.9
2017-Nov-08 05:00N 60°17' E 026°17'4 8.1
2017-Nov-08 04:30N 60°19' E 026°25'4 8.0
2017-Nov-08 04:00N 60°20' E 026°32'4 8.0
2017-Nov-08 03:30N 60°21' E 026°40'4 7.8
2017-Nov-08 03:00N 60°22' E 026°47'4 7.9
2017-Nov-08 02:30N 60°22' E 026°55'  

Dump ship's entire track history